Time;durP1;ratioP1;P1;durP2;ratioP2;P2;SDS_P1;SDS_P2;PMS_P1;PMS_P2;Temp;Humidity;BMP_temperature;BMP_pressure;BME280_temperature;BME280_humidity;BME280_pressure;Samples;Min_cycle;Max_cycle;Signal;HPM_P1;HPM_P2
2023/12/24 00:00:13;;;;;;;4.40;1.90;;;;;;;;;;5031699;28;20382;-63
2023/12/24 00:02:38;;;;;;;3.53;1.55;;;;;;;;;;5030931;28;20286;-63
2023/12/24 00:05:03;;;;;;;1.87;1.67;;;;;;;;;;5031509;28;20029;-63
2023/12/24 00:07:28;;;;;;;2.50;1.80;;;;;;;;;;5025444;28;20266;-63
2023/12/24 00:09:54;;;;;;;4.20;1.43;;;;;;;;;;5028462;28;20354;-63
2023/12/24 00:12:19;;;;;;;4.73;1.83;;;;;;;;;;5026417;28;20259;-63
2023/12/24 00:14:44;;;;;;;3.67;1.40;;;;;;;;;;5034379;28;20309;-63
2023/12/24 00:17:09;;;;;;;3.53;1.33;;;;;;;;;;5034927;28;20627;-63
2023/12/24 00:19:35;;;;;;;1.90;1.48;;;;;;;;;;5034808;28;20337;-63
2023/12/24 00:22:00;;;;;;;4.17;1.43;;;;;;;;;;5034734;28;20067;-63
2023/12/24 00:24:25;;;;;;;1.95;1.40;;;;;;;;;;5033010;28;20022;-63
2023/12/24 00:26:50;;;;;;;1.70;1.23;;;;;;;;;;5034851;28;20033;-63
2023/12/24 00:29:15;;;;;;;3.10;1.40;;;;;;;;;;5034645;28;20087;-63
2023/12/24 00:31:41;;;;;;;1.97;1.30;;;;;;;;;;5033843;28;20461;-63
2023/12/24 00:34:06;;;;;;;2.20;1.40;;;;;;;;;;5034832;28;20022;-63
2023/12/24 00:36:31;;;;;;;5.30;1.70;;;;;;;;;;5034518;28;20033;-64
2023/12/24 00:38:56;;;;;;;2.53;1.50;;;;;;;;;;5026465;28;20263;-63
2023/12/24 00:41:21;;;;;;;2.93;1.27;;;;;;;;;;5034105;28;20022;-63
2023/12/24 00:43:47;;;;;;;2.88;1.40;;;;;;;;;;5033124;28;20282;-63
2023/12/24 00:46:15;;;;;;;1.67;1.30;;;;;;;;;;5034547;28;20021;-63
2023/12/24 00:48:41;;;;;;;1.98;1.20;;;;;;;;;;5034491;28;20277;-63
2023/12/24 00:51:06;;;;;;;3.38;1.55;;;;;;;;;;5033643;28;20025;-63
2023/12/24 00:53:31;;;;;;;1.83;1.30;;;;;;;;;;5034353;28;20031;-63
2023/12/24 00:55:57;;;;;;;2.40;1.30;;;;;;;;;;5034590;28;20393;-67
2023/12/24 00:58:23;;;;;;;2.03;1.27;;;;;;;;;;5030638;28;20263;-67
2023/12/24 01:00:48;;;;;;;2.10;1.38;;;;;;;;;;5033484;28;20037;-67
2023/12/24 01:03:13;;;;;;;5.67;1.17;;;;;;;;;;5033367;28;20033;-67
2023/12/24 01:05:39;;;;;;;3.63;1.38;;;;;;;;;;5033747;28;20278;-67
2023/12/24 01:08:04;;;;;;;1.10;1.00;;;;;;;;;;5035142;28;20020;-67
2023/12/24 01:10:29;;;;;;;3.90;1.35;;;;;;;;;;5034356;28;20025;-67
2023/12/24 01:12:55;;;;;;;4.00;1.20;;;;;;;;;;5035140;28;20541;-67
2023/12/24 01:15:20;;;;;;;3.38;1.50;;;;;;;;;;5034743;28;20356;-67
2023/12/24 01:17:45;;;;;;;2.47;1.27;;;;;;;;;;5023322;28;20036;-67
2023/12/24 01:20:14;;;;;;;2.72;1.50;;;;;;;;;;5033310;28;20045;-67
2023/12/24 01:22:40;;;;;;;1.42;1.00;;;;;;;;;;5032875;28;20041;-68
2023/12/24 01:25:05;;;;;;;3.17;1.35;;;;;;;;;;5032818;28;20029;-67
2023/12/24 01:27:30;;;;;;;1.55;1.15;;;;;;;;;;5032759;28;20057;-67
2023/12/24 01:29:55;;;;;;;2.73;1.30;;;;;;;;;;5033774;28;20460;-67
2023/12/24 01:32:21;;;;;;;3.05;1.23;;;;;;;;;;5033369;28;20014;-67
2023/12/24 01:34:46;;;;;;;1.80;1.23;;;;;;;;;;5027422;28;20038;-67
2023/12/24 01:37:11;;;;;;;2.60;1.47;;;;;;;;;;5033844;28;20267;-67
2023/12/24 01:39:36;;;;;;;3.13;1.33;;;;;;;;;;5032977;28;20305;-66
2023/12/24 01:42:02;;;;;;;1.20;1.10;;;;;;;;;;5033176;28;20113;-67
2023/12/24 01:44:27;;;;;;;2.33;1.00;;;;;;;;;;5032431;28;20280;-67
2023/12/24 01:46:53;;;;;;;2.63;1.37;;;;;;;;;;5033189;28;20040;-67
2023/12/24 01:49:18;;;;;;;2.05;1.27;;;;;;;;;;5033627;28;20328;-67
2023/12/24 01:51:43;;;;;;;1.52;1.23;;;;;;;;;;5031083;28;20060;-67
2023/12/24 01:54:09;;;;;;;1.95;1.08;;;;;;;;;;5032433;28;20112;-67
2023/12/24 01:56:34;;;;;;;2.42;1.23;;;;;;;;;;5029424;28;20030;-68
2023/12/24 01:59:00;;;;;;;1.50;1.08;;;;;;;;;;5032745;28;20026;-67
2023/12/24 02:01:26;;;;;;;3.08;1.10;;;;;;;;;;5033219;28;20033;-67
2023/12/24 02:03:51;;;;;;;2.92;1.13;;;;;;;;;;5031524;28;20030;-68
2023/12/24 02:06:17;;;;;;;1.90;1.20;;;;;;;;;;5029118;28;20024;-64
2023/12/24 02:08:44;;;;;;;1.40;0.90;;;;;;;;;;5027508;28;20478;-63
2023/12/24 02:11:09;;;;;;;4.55;1.02;;;;;;;;;;5032774;28;20018;-63
2023/12/24 02:13:34;;;;;;;3.80;1.00;;;;;;;;;;5032762;28;20025;-63
2023/12/24 02:16:02;;;;;;;0.80;0.80;;;;;;;;;;5031787;28;20049;-64
2023/12/24 02:18:27;;;;;;;0.80;0.65;;;;;;;;;;5032892;28;20053;-63
2023/12/24 02:20:58;;;;;;;1.00;0.80;;;;;;;;;;5031713;28;20127;-63
2023/12/24 02:23:23;;;;;;;5.22;1.15;;;;;;;;;;5029404;28;20822;-63
2023/12/24 02:25:49;;;;;;;1.13;0.93;;;;;;;;;;5032331;28;20060;-63
2023/12/24 02:28:19;;;;;;;4.22;0.93;;;;;;;;;;5032973;28;20461;-63
2023/12/24 02:30:46;;;;;;;1.50;0.95;;;;;;;;;;5031972;28;20026;-63
2023/12/24 02:33:12;;;;;;;0.70;0.70;;;;;;;;;;5032188;28;20483;-63
2023/12/24 02:35:38;;;;;;;3.38;0.98;;;;;;;;;;5032259;28;20029;-63
2023/12/24 02:38:04;;;;;;;5.03;1.30;;;;;;;;;;5032487;28;20030;-63
2023/12/24 02:40:29;;;;;;;3.97;0.90;;;;;;;;;;5025771;28;20021;-63
2023/12/24 02:42:54;;;;;;;2.37;1.27;;;;;;;;;;5031507;28;20033;-63
2023/12/24 02:45:19;;;;;;;1.30;0.80;;;;;;;;;;5032051;28;20323;-63
2023/12/24 02:47:44;;;;;;;1.23;0.80;;;;;;;;;;5032566;28;20259;-63
2023/12/24 02:50:10;;;;;;;1.47;1.07;;;;;;;;;;5031307;28;20029;-63
2023/12/24 02:52:35;;;;;;;2.80;1.20;;;;;;;;;;5032573;28;20021;-63
2023/12/24 02:55:00;;;;;;;3.23;1.20;;;;;;;;;;5026645;28;20021;-63
2023/12/24 02:57:26;;;;;;;1.53;1.20;;;;;;;;;;5031530;28;20259;-63
2023/12/24 02:59:51;;;;;;;5.53;1.15;;;;;;;;;;5032078;28;20267;-63
2023/12/24 03:02:16;;;;;;;2.10;1.10;;;;;;;;;;5030776;28;20175;-64
2023/12/24 03:04:42;;;;;;;1.93;0.90;;;;;;;;;;5031752;28;20112;-63
2023/12/24 03:07:07;;;;;;;1.73;1.03;;;;;;;;;;5029802;28;20018;-63
2023/12/24 03:09:32;;;;;;;1.30;0.90;;;;;;;;;;5031983;28;20630;-63
2023/12/24 03:11:58;;;;;;;1.07;0.93;;;;;;;;;;5025721;28;20033;-63
2023/12/24 03:14:24;;;;;;;0.85;0.77;;;;;;;;;;5029878;28;20266;-67
2023/12/24 03:16:49;;;;;;;1.20;1.00;;;;;;;;;;5032366;28;20470;-63
2023/12/24 03:19:14;;;;;;;1.30;1.00;;;;;;;;;;5032021;28;20297;-63
2023/12/24 03:21:41;;;;;;;4.35;1.27;;;;;;;;;;5030964;28;20836;-63
2023/12/24 03:24:06;;;;;;;1.70;1.02;;;;;;;;;;5031831;28;20026;-63
2023/12/24 03:26:32;;;;;;;1.27;0.95;;;;;;;;;;5031635;28;20044;-63
2023/12/24 03:28:57;;;;;;;2.60;1.17;;;;;;;;;;5028038;28;20025;-63
2023/12/24 03:31:25;;;;;;;4.70;1.10;;;;;;;;;;5032297;28;20014;-63
2023/12/24 03:33:51;;;;;;;1.63;1.40;;;;;;;;;;5031182;28;20365;-63
2023/12/24 03:36:16;;;;;;;1.27;1.00;;;;;;;;;;5031721;28;20144;-63
2023/12/24 03:38:41;;;;;;;2.50;1.30;;;;;;;;;;5031134;28;20283;-63
2023/12/24 03:41:06;;;;;;;3.70;1.50;;;;;;;;;;5031375;28;20319;-63
2023/12/24 03:43:32;;;;;;;1.63;1.30;;;;;;;;;;5031656;28;20096;-63
2023/12/24 03:45:57;;;;;;;3.47;1.48;;;;;;;;;;5024435;28;20426;-64
2023/12/24 03:48:22;;;;;;;3.55;1.45;;;;;;;;;;5035458;28;20024;-63
2023/12/24 03:50:47;;;;;;;2.73;1.63;;;;;;;;;;5035805;28;20041;-63
2023/12/24 03:53:13;;;;;;;1.90;1.50;;;;;;;;;;5034875;28;20278;-63
2023/12/24 03:55:38;;;;;;;2.40;1.53;;;;;;;;;;5035555;28;20353;-63
2023/12/24 03:58:03;;;;;;;2.80;1.70;;;;;;;;;;5035085;28;20369;-63
2023/12/24 04:00:28;;;;;;;2.87;1.73;;;;;;;;;;5034667;28;20263;-63
2023/12/24 04:02:55;;;;;;;2.50;1.70;;;;;;;;;;5028342;28;20289;-63
2023/12/24 04:05:20;;;;;;;4.88;1.70;;;;;;;;;;5035037;28;20320;-63
2023/12/24 04:07:45;;;;;;;2.53;1.90;;;;;;;;;;5034663;28;20404;-63
2023/12/24 04:10:10;;;;;;;1.60;1.47;;;;;;;;;;5035266;28;20018;-63
2023/12/24 04:12:36;;;;;;;5.40;1.95;;;;;;;;;;5034376;28;20275;-63
2023/12/24 04:15:01;;;;;;;3.15;1.67;;;;;;;;;;5034484;28;20049;-63
2023/12/24 04:17:26;;;;;;;4.93;2.22;;;;;;;;;;5035272;28;20021;-63
2023/12/24 04:19:52;;;;;;;3.40;1.83;;;;;;;;;;5033979;28;20056;-63
2023/12/24 04:22:17;;;;;;;2.80;1.70;;;;;;;;;;5034634;28;20027;-63
2023/12/24 04:24:42;;;;;;;3.60;1.70;;;;;;;;;;5035135;28;20274;-63
2023/12/24 04:27:07;;;;;;;2.33;1.87;;;;;;;;;;5033447;28;20259;-63
2023/12/24 04:29:32;;;;;;;3.80;1.90;;;;;;;;;;5034265;28;20281;-63
2023/12/24 04:31:58;;;;;;;2.30;1.80;;;;;;;;;;5033922;28;20470;-63
2023/12/24 04:34:23;;;;;;;4.88;1.95;;;;;;;;;;5032858;28;20297;-63
2023/12/24 04:36:48;;;;;;;1.73;1.40;;;;;;;;;;5030647;28;20499;-63
2023/12/24 04:39:13;;;;;;;2.27;1.83;;;;;;;;;;5031180;28;20267;-63
2023/12/24 04:41:39;;;;;;;4.90;1.87;;;;;;;;;;5032347;28;20265;-63
2023/12/24 04:44:04;;;;;;;4.70;1.70;;;;;;;;;;5033444;28;20343;-63
2023/12/24 04:46:29;;;;;;;2.20;1.70;;;;;;;;;;5034288;28;20303;-63
2023/12/24 04:48:54;;;;;;;3.70;1.90;;;;;;;;;;5033762;28;20370;-63
2023/12/24 04:51:20;;;;;;;3.23;1.20;;;;;;;;;;5031069;28;20267;-63
2023/12/24 04:53:45;;;;;;;5.13;1.60;;;;;;;;;;5028171;28;20025;-63
2023/12/24 04:56:22;;;;;;;1.67;1.43;;;;;;;;;;5033958;28;20287;-63
2023/12/24 04:58:47;;;;;;;2.63;1.80;;;;;;;;;;5033972;28;20030;-63
2023/12/24 05:01:16;;;;;;;4.43;1.50;;;;;;;;;;5032271;28;20098;-63
2023/12/24 05:03:41;;;;;;;1.75;1.50;;;;;;;;;;5031391;28;20116;-63
2023/12/24 05:06:07;;;;;;;2.42;1.95;;;;;;;;;;5033383;28;20104;-63
2023/12/24 05:08:32;;;;;;;3.83;1.98;;;;;;;;;;5032602;28;20021;-63
2023/12/24 05:10:57;;;;;;;3.77;1.53;;;;;;;;;;5033992;28;20076;-63
2023/12/24 05:13:22;;;;;;;1.77;1.57;;;;;;;;;;5034015;28;20832;-63
2023/12/24 05:15:48;;;;;;;2.27;1.77;;;;;;;;;;5033244;28;20337;-63
2023/12/24 05:18:13;;;;;;;2.65;1.80;;;;;;;;;;5032963;28;20288;-63
2023/12/24 05:20:38;;;;;;;1.97;1.53;;;;;;;;;;5032592;28;20507;-63
2023/12/24 05:23:03;;;;;;;1.60;1.50;;;;;;;;;;5031307;28;20785;-63
2023/12/24 05:25:28;;;;;;;3.23;1.70;;;;;;;;;;5025187;28;20773;-63
2023/12/24 05:27:54;;;;;;;2.90;1.60;;;;;;;;;;5032751;28;20255;-63
2023/12/24 05:30:19;;;;;;;1.55;1.42;;;;;;;;;;5032742;28;20266;-63
2023/12/24 05:32:44;;;;;;;4.10;1.30;;;;;;;;;;5032324;28;20026;-63
2023/12/24 05:35:09;;;;;;;3.33;1.47;;;;;;;;;;5031482;28;20274;-67
2023/12/24 05:37:35;;;;;;;1.35;1.25;;;;;;;;;;5031921;28;20267;-67
2023/12/24 05:40:00;;;;;;;1.17;1.07;;;;;;;;;;5032890;28;20112;-66
2023/12/24 05:42:25;;;;;;;1.57;1.20;;;;;;;;;;5030137;28;20366;-67
2023/12/24 05:44:50;;;;;;;2.17;1.60;;;;;;;;;;5032212;28;20271;-67
2023/12/24 05:47:15;;;;;;;1.13;1.03;;;;;;;;;;5032485;28;20254;-66
2023/12/24 05:49:41;;;;;;;3.80;1.13;;;;;;;;;;5032609;28;20258;-67
2023/12/24 05:52:06;;;;;;;0.88;0.85;;;;;;;;;;5032672;28;20424;-67
2023/12/24 05:54:31;;;;;;;1.40;1.02;;;;;;;;;;5032065;28;20132;-67
2023/12/24 05:56:56;;;;;;;1.70;0.73;;;;;;;;;;5032189;28;20568;-67
2023/12/24 05:59:22;;;;;;;1.53;0.93;;;;;;;;;;5030972;28;20067;-66
2023/12/24 06:01:47;;;;;;;2.25;1.00;;;;;;;;;;5031596;28;20485;-67
2023/12/24 06:04:13;;;;;;;1.27;0.90;;;;;;;;;;5032259;28;20021;-67
2023/12/24 06:06:41;;;;;;;1.33;0.90;;;;;;;;;;5030724;28;20278;-67
2023/12/24 06:09:07;;;;;;;1.67;1.05;;;;;;;;;;5032224;28;20270;-67
2023/12/24 06:11:32;;;;;;;1.23;1.00;;;;;;;;;;5033201;28;20378;-67
2023/12/24 06:13:57;;;;;;;4.67;0.97;;;;;;;;;;5031651;28;20025;-67
2023/12/24 06:16:22;;;;;;;4.90;1.30;;;;;;;;;;5030417;28;20301;-67
2023/12/24 06:18:48;;;;;;;2.23;1.10;;;;;;;;;;5030123;28;20032;-67
2023/12/24 06:21:13;;;;;;;1.07;0.93;;;;;;;;;;5031036;28;20357;-67
2023/12/24 06:23:39;;;;;;;1.37;1.07;;;;;;;;;;5031284;28;20025;-67
2023/12/24 06:26:04;;;;;;;1.55;1.08;;;;;;;;;;5031566;28;20306;-67
2023/12/24 06:28:29;;;;;;;1.10;1.00;;;;;;;;;;5030915;28;20021;-67
2023/12/24 06:30:55;;;;;;;1.97;1.10;;;;;;;;;;5029133;28;20063;-67
2023/12/24 06:33:21;;;;;;;4.25;1.05;;;;;;;;;;5031207;28;20270;-67
2023/12/24 06:35:46;;;;;;;1.90;0.90;;;;;;;;;;5030685;28;20501;-67
2023/12/24 06:38:11;;;;;;;1.10;0.80;;;;;;;;;;5031294;28;20305;-67
2023/12/24 06:40:36;;;;;;;1.80;0.70;;;;;;;;;;5029525;28;20757;-67
2023/12/24 06:43:02;;;;;;;1.75;1.10;;;;;;;;;;5029788;28;20057;-67
2023/12/24 06:45:27;;;;;;;0.75;0.75;;;;;;;;;;5030082;28;20029;-67
2023/12/24 06:47:52;;;;;;;0.75;0.75;;;;;;;;;;5031077;28;20028;-67
2023/12/24 06:50:19;;;;;;;1.03;0.80;;;;;;;;;;5030334;28;20088;-67
2023/12/24 06:52:44;;;;;;;0.70;0.70;;;;;;;;;;5029938;28;20797;-67
2023/12/24 06:55:11;;;;;;;0.70;0.70;;;;;;;;;;5030365;28;20057;-67
2023/12/24 06:57:37;;;;;;;1.67;0.63;;;;;;;;;;5030728;28;20029;-67
2023/12/24 07:00:02;;;;;;;0.50;0.50;;;;;;;;;;5030741;28;20064;-67
2023/12/24 07:02:27;;;;;;;0.98;0.77;;;;;;;;;;5030374;28;20278;-67
2023/12/24 07:04:52;;;;;;;0.73;0.60;;;;;;;;;;5029653;28;20492;-67
2023/12/24 07:07:18;;;;;;;1.27;0.83;;;;;;;;;;5028823;28;20258;-67
2023/12/24 07:09:43;;;;;;;1.07;0.83;;;;;;;;;;5029849;28;20029;-67
2023/12/24 07:12:08;;;;;;;0.60;0.60;;;;;;;;;;5028942;28;20266;-67
2023/12/24 07:14:33;;;;;;;0.50;0.50;;;;;;;;;;4986395;28;1226878;-67
2023/12/24 07:16:59;;;;;;;1.42;0.50;;;;;;;;;;5031010;28;20057;-67
2023/12/24 07:19:24;;;;;;;0.68;0.60;;;;;;;;;;5030409;28;20501;-67
2023/12/24 07:21:49;;;;;;;0.90;0.50;;;;;;;;;;5034220;28;20029;-67
2023/12/24 07:24:14;;;;;;;0.68;0.60;;;;;;;;;;5035412;28;20289;-65
2023/12/24 07:26:40;;;;;;;0.43;0.43;;;;;;;;;;5036145;28;20524;-68
2023/12/24 07:29:05;;;;;;;0.33;0.33;;;;;;;;;;5035445;28;20025;-68
2023/12/24 07:31:30;;;;;;;0.68;0.50;;;;;;;;;;5034137;28;20263;-67
2023/12/24 07:33:55;;;;;;;0.40;0.40;;;;;;;;;;5035823;28;20432;-67
2023/12/24 07:36:21;;;;;;;0.75;0.50;;;;;;;;;;5034495;28;20095;-67
2023/12/24 07:38:46;;;;;;;0.47;0.47;;;;;;;;;;5034112;28;20033;-67
2023/12/24 07:41:11;;;;;;;1.75;0.60;;;;;;;;;;5036891;28;20258;-67
2023/12/24 07:43:36;;;;;;;4.80;0.63;;;;;;;;;;5035357;28;20032;-67
2023/12/24 07:46:02;;;;;;;2.13;0.80;;;;;;;;;;5035670;28;20312;-67
2023/12/24 07:48:27;;;;;;;0.73;0.50;;;;;;;;;;5034236;28;20273;-67
2023/12/24 07:50:52;;;;;;;0.57;0.50;;;;;;;;;;5031253;28;20052;-68
2023/12/24 07:53:18;;;;;;;0.40;0.40;;;;;;;;;;5034225;28;20061;-67
2023/12/24 07:55:43;;;;;;;1.10;0.40;;;;;;;;;;5034233;28;20013;-63
2023/12/24 07:58:08;;;;;;;2.38;0.50;;;;;;;;;;5033964;28;20025;-63
2023/12/24 08:00:34;;;;;;;0.53;0.40;;;;;;;;;;5033973;28;20477;-63
2023/12/24 08:02:59;;;;;;;0.40;0.40;;;;;;;;;;5035378;28;20275;-63
2023/12/24 08:05:25;;;;;;;0.35;0.25;;;;;;;;;;5034191;28;20028;-63
2023/12/24 08:07:50;;;;;;;1.33;0.50;;;;;;;;;;5020120;28;20048;-63
2023/12/24 08:10:15;;;;;;;0.93;0.60;;;;;;;;;;5033466;28;20104;-63
2023/12/24 08:12:41;;;;;;;0.53;0.37;;;;;;;;;;5029919;28;20299;-63
2023/12/24 08:15:06;;;;;;;2.60;0.50;;;;;;;;;;5026117;28;20362;-63
2023/12/24 08:17:31;;;;;;;1.20;0.40;;;;;;;;;;5021571;28;20263;-63
2023/12/24 08:19:57;;;;;;;0.70;0.37;;;;;;;;;;5031594;28;20051;-63
2023/12/24 08:22:22;;;;;;;0.40;0.40;;;;;;;;;;5033493;28;20322;-63
2023/12/24 08:24:48;;;;;;;2.43;0.50;;;;;;;;;;5033203;28;20025;-63
2023/12/24 08:27:13;;;;;;;1.75;0.30;;;;;;;;;;5034566;28;20266;-63
2023/12/24 08:29:38;;;;;;;2.53;0.50;;;;;;;;;;5035499;28;20036;-63
2023/12/24 08:32:03;;;;;;;0.50;0.50;;;;;;;;;;5033538;28;20017;-63
2023/12/24 08:34:29;;;;;;;1.98;0.52;;;;;;;;;;5035609;28;20261;-63
2023/12/24 08:36:54;;;;;;;0.40;0.40;;;;;;;;;;5032666;28;20029;-63
2023/12/24 08:39:19;;;;;;;1.50;0.50;;;;;;;;;;5033666;28;20025;-63
2023/12/24 08:41:44;;;;;;;0.53;0.40;;;;;;;;;;5030839;28;20774;-63
2023/12/24 08:44:10;;;;;;;0.52;0.50;;;;;;;;;;5027814;28;20615;-63
2023/12/24 08:46:35;;;;;;;1.03;0.70;;;;;;;;;;5035164;28;20075;-63
2023/12/24 08:49:00;;;;;;;2.63;0.77;;;;;;;;;;5030137;28;20326;-63
2023/12/24 08:51:25;;;;;;;1.05;0.60;;;;;;;;;;5033544;28;20266;-77
2023/12/24 08:53:51;;;;;;;0.93;0.60;;;;;;;;;;5034021;28;20025;-78
2023/12/24 08:56:16;;;;;;;1.13;0.70;;;;;;;;;;5032634;28;20738;-78
2023/12/24 08:58:41;;;;;;;0.60;0.60;;;;;;;;;;5033116;28;20266;-78
2023/12/24 09:01:06;;;;;;;0.43;0.43;;;;;;;;;;5023568;28;20025;-78
2023/12/24 09:03:31;;;;;;;1.47;0.63;;;;;;;;;;5030550;28;20286;-78
2023/12/24 09:05:57;;;;;;;0.50;0.50;;;;;;;;;;5032724;28;20265;-76
2023/12/24 09:08:22;;;;;;;0.87;0.50;;;;;;;;;;5025519;28;20274;-76
2023/12/24 09:10:47;;;;;;;0.63;0.50;;;;;;;;;;5033098;28;20282;-76
2023/12/24 09:13:12;;;;;;;0.47;0.47;;;;;;;;;;5032731;28;20267;-76
2023/12/24 09:15:38;;;;;;;0.77;0.40;;;;;;;;;;5032881;28;20227;-76
2023/12/24 09:18:03;;;;;;;0.28;0.28;;;;;;;;;;5031226;28;20032;-76
2023/12/24 09:20:28;;;;;;;2.53;0.50;;;;;;;;;;5024886;28;20033;-76
2023/12/24 09:22:53;;;;;;;0.20;0.20;;;;;;;;;;5027145;28;20277;-76
2023/12/24 09:25:19;;;;;;;0.70;0.30;;;;;;;;;;5030411;28;20259;-77
2023/12/24 09:27:44;;;;;;;0.77;0.43;;;;;;;;;;5032422;28;20270;-76
2023/12/24 09:30:09;;;;;;;0.40;0.30;;;;;;;;;;5033200;28;20469;-76
2023/12/24 09:32:35;;;;;;;1.08;0.20;;;;;;;;;;5031127;28;20623;-76
2023/12/24 09:35:00;;;;;;;2.45;0.32;;;;;;;;;;5026552;28;20470;-75
2023/12/24 09:37:26;;;;;;;0.38;0.30;;;;;;;;;;5031512;28;20022;-75
2023/12/24 09:39:52;;;;;;;1.13;0.30;;;;;;;;;;5032161;28;20029;-74
2023/12/24 09:42:17;;;;;;;0.63;0.30;;;;;;;;;;5032428;28;20022;-74
2023/12/24 09:44:42;;;;;;;0.20;0.20;;;;;;;;;;5032210;28;20029;-76
2023/12/24 09:47:07;;;;;;;0.47;0.17;;;;;;;;;;5023431;28;20022;-76
2023/12/24 09:49:33;;;;;;;0.10;0.10;;;;;;;;;;5031463;28;20462;-76
2023/12/24 09:51:59;;;;;;;0.30;0.20;;;;;;;;;;5028320;28;20349;-76
2023/12/24 09:54:24;;;;;;;0.15;0.15;;;;;;;;;;5030732;28;20958;-77
2023/12/24 09:56:49;;;;;;;0.93;0.30;;;;;;;;;;5032907;28;20064;-76
2023/12/24 09:59:14;;;;;;;0.38;0.30;;;;;;;;;;5031760;28;20278;-76
2023/12/24 10:01:44;;;;;;;0.10;0.10;;;;;;;;;;5032731;28;20120;-75
2023/12/24 10:04:09;;;;;;;0.20;0.20;;;;;;;;;;5031337;28;20031;-75
2023/12/24 10:06:50;;;;;;;0.20;0.20;;;;;;;;;;5023142;28;20495;-76
2023/12/24 10:09:15;;;;;;;0.20;0.20;;;;;;;;;;5017386;28;20025;-75
2023/12/24 10:11:40;;;;;;;0.63;0.10;;;;;;;;;;5031237;28;20466;-76
2023/12/24 10:14:06;;;;;;;0.20;0.20;;;;;;;;;;5031744;28;20271;-76
2023/12/24 10:16:41;;;;;;;0.10;0.10;;;;;;;;;;5030639;28;20298;-79
2023/12/24 10:19:06;;;;;;;0.30;0.30;;;;;;;;;;5025861;28;20282;-79
2023/12/24 10:21:31;;;;;;;0.20;0.20;;;;;;;;;;5029101;28;20051;-79
2023/12/24 10:24:02;;;;;;;0.37;0.37;;;;;;;;;;5031560;28;20021;-79
2023/12/24 10:26:28;;;;;;;0.52;0.43;;;;;;;;;;5032051;28;20290;-79
2023/12/24 10:28:53;;;;;;;0.20;0.20;;;;;;;;;;5031156;28;20045;-79
2023/12/24 10:31:19;;;;;;;0.30;0.30;;;;;;;;;;5030427;28;20037;-79
2023/12/24 10:33:44;;;;;;;0.40;0.40;;;;;;;;;;5031079;28;20033;-79
2023/12/24 10:36:09;;;;;;;0.30;0.30;;;;;;;;;;5030070;28;20051;-79
2023/12/24 10:38:36;;;;;;;0.20;0.20;;;;;;;;;;5028329;28;20081;-79
2023/12/24 10:41:01;;;;;;;0.50;0.50;;;;;;;;;;5030550;28;20449;-79
2023/12/24 10:43:27;;;;;;;0.32;0.30;;;;;;;;;;5030541;28;20112;-79
2023/12/24 10:45:52;;;;;;;0.73;0.30;;;;;;;;;;5029856;28;20025;-78
2023/12/24 10:48:18;;;;;;;0.77;0.50;;;;;;;;;;5031682;28;20013;-79
2023/12/24 10:50:43;;;;;;;0.20;0.20;;;;;;;;;;5030411;28;20017;-78
2023/12/24 10:53:09;;;;;;;0.20;0.20;;;;;;;;;;5030172;28;20328;-79
2023/12/24 10:55:35;;;;;;;0.40;0.40;;;;;;;;;;5030354;28;20049;-78
2023/12/24 10:58:14;;;;;;;0.30;0.30;;;;;;;;;;5027790;28;20025;-78
2023/12/24 11:00:39;;;;;;;0.45;0.30;;;;;;;;;;5027305;28;20478;-78
2023/12/24 11:03:04;;;;;;;0.20;0.20;;;;;;;;;;5030105;28;20033;-78
2023/12/24 11:05:48;;;;;;;0.40;0.40;;;;;;;;;;5029493;28;20060;-77
2023/12/24 11:08:19;;;;;;;0.40;0.40;;;;;;;;;;5028276;28;20262;-79
2023/12/24 11:10:45;;;;;;;0.45;0.40;;;;;;;;;;5047031;28;20078;-77
2023/12/24 11:13:34;;;;;;;0.40;0.40;;;;;;;;;;5028193;28;20028;-78
2023/12/24 11:16:00;;;;;;;0.85;0.57;;;;;;;;;;5025409;28;20595;-77
2023/12/24 11:18:41;;;;;;;0.30;0.30;;;;;;;;;;5027394;28;20101;-78
2023/12/24 11:21:06;;;;;;;0.50;0.50;;;;;;;;;;5028708;28;20021;-78
2023/12/24 11:23:32;;;;;;;0.30;0.30;;;;;;;;;;5028231;28;20075;-77
2023/12/24 11:25:57;;;;;;;0.40;0.40;;;;;;;;;;5027822;28;20101;-73
2023/12/24 11:28:23;;;;;;;1.93;0.40;;;;;;;;;;5028945;28;20021;-73
2023/12/24 11:30:51;;;;;;;0.40;0.30;;;;;;;;;;5030057;28;21311;-75
2023/12/24 11:33:28;;;;;;;0.45;0.45;;;;;;;;;;5023854;28;20022;-74
2023/12/24 11:35:55;;;;;;;0.40;0.30;;;;;;;;;;5025504;28;20033;-74
2023/12/24 11:38:35;;;;;;;0.30;0.30;;;;;;;;;;5026178;28;20049;-73
2023/12/24 11:41:07;;;;;;;0.22;0.22;;;;;;;;;;5025047;28;20477;-74
2023/12/24 11:43:32;;;;;;;0.95;0.50;;;;;;;;;;5027430;28;20091;-75
2023/12/24 11:45:57;;;;;;;0.32;0.32;;;;;;;;;;5029352;28;20350;-74
2023/12/24 11:48:25;;;;;;;0.20;0.20;;;;;;;;;;5026951;28;20061;-74
2023/12/24 11:51:07;;;;;;;3.30;0.68;;;;;;;;;;5027052;28;20730;-75
2023/12/24 11:53:33;;;;;;;0.93;0.40;;;;;;;;;;5027115;28;20390;-74
2023/12/24 11:56:03;;;;;;;0.40;0.40;;;;;;;;;;5028113;28;20358;-74
2023/12/24 11:58:28;;;;;;;0.40;0.40;;;;;;;;;;5030505;28;20029;-74
2023/12/24 12:00:53;;;;;;;0.73;0.40;;;;;;;;;;5027736;28;20030;-73
2023/12/24 12:03:18;;;;;;;0.60;0.60;;;;;;;;;;5026493;28;20340;-73
2023/12/24 12:05:44;;;;;;;1.33;0.60;;;;;;;;;;5027058;28;20302;-74
2023/12/24 12:08:09;;;;;;;0.90;0.70;;;;;;;;;;5032984;28;20018;-74
2023/12/24 12:10:34;;;;;;;5.00;0.70;;;;;;;;;;5028882;28;20017;-74
2023/12/24 12:12:59;;;;;;;0.60;0.60;;;;;;;;;;5034106;28;20262;-73
2023/12/24 12:15:26;;;;;;;0.47;0.47;;;;;;;;;;5035893;28;20124;-73
2023/12/24 12:17:52;;;;;;;0.70;0.70;;;;;;;;;;5036135;28;20267;-74
2023/12/24 12:20:17;;;;;;;0.30;0.30;;;;;;;;;;5033226;28;20475;-74
2023/12/24 12:22:42;;;;;;;2.90;0.57;;;;;;;;;;5033777;28;20533;-73
2023/12/24 12:25:08;;;;;;;0.47;0.47;;;;;;;;;;5034523;28;20346;-74
2023/12/24 12:27:33;;;;;;;1.48;0.93;;;;;;;;;;5025379;28;20346;-71
2023/12/24 12:29:58;;;;;;;0.50;0.50;;;;;;;;;;5034081;28;20049;-71
2023/12/24 12:32:23;;;;;;;1.77;0.80;;;;;;;;;;5034541;28;20336;-71
2023/12/24 12:34:48;;;;;;;0.50;0.50;;;;;;;;;;5034411;28;20328;-68
2023/12/24 12:37:14;;;;;;;0.60;0.60;;;;;;;;;;5030575;28;20029;-71
2023/12/24 12:39:39;;;;;;;1.20;0.80;;;;;;;;;;5034425;28;20029;-71
2023/12/24 12:42:04;;;;;;;0.87;0.73;;;;;;;;;;5033624;28;20405;-70
2023/12/24 12:44:30;;;;;;;0.43;0.43;;;;;;;;;;5034488;28;20278;-71
2023/12/24 12:46:55;;;;;;;0.60;0.60;;;;;;;;;;5033340;28;20053;-70
2023/12/24 12:49:20;;;;;;;0.70;0.70;;;;;;;;;;5033096;28;20466;-71
2023/12/24 12:51:45;;;;;;;0.75;0.73;;;;;;;;;;5034115;28;20266;-70
2023/12/24 12:54:14;;;;;;;0.70;0.70;;;;;;;;;;5033122;28;20102;-70
2023/12/24 12:56:43;;;;;;;0.82;0.80;;;;;;;;;;5030519;28;20362;-70
2023/12/24 12:59:08;;;;;;;1.15;0.85;;;;;;;;;;5033527;28;20025;-70
2023/12/24 13:01:40;;;;;;;0.50;0.50;;;;;;;;;;5035640;28;20496;-69
2023/12/24 13:04:05;;;;;;;1.38;0.65;;;;;;;;;;5032604;28;20541;-70
2023/12/24 13:06:30;;;;;;;0.63;0.63;;;;;;;;;;5033401;28;20163;-71
2023/12/24 13:09:07;;;;;;;1.20;0.70;;;;;;;;;;5028805;28;20353;-71
2023/12/24 13:11:32;;;;;;;0.90;0.60;;;;;;;;;;5029108;28;20033;-71
2023/12/24 13:14:07;;;;;;;0.70;0.70;;;;;;;;;;5031792;28;20021;-70
2023/12/24 13:16:33;;;;;;;0.65;0.65;;;;;;;;;;5033604;28;20053;-71
2023/12/24 13:19:13;;;;;;;1.42;0.80;;;;;;;;;;5030082;28;20029;-70
2023/12/24 13:21:38;;;;;;;1.55;0.77;;;;;;;;;;5030866;28;20481;-71
2023/12/24 13:24:03;;;;;;;0.60;0.60;;;;;;;;;;5031926;28;20029;-70
2023/12/24 13:26:28;;;;;;;0.65;0.50;;;;;;;;;;5029215;28;20025;-70
2023/12/24 13:28:57;;;;;;;0.73;0.60;;;;;;;;;;5031983;28;20469;-70
2023/12/24 13:31:24;;;;;;;0.40;0.40;;;;;;;;;;5026875;28;20026;-70
2023/12/24 13:33:50;;;;;;;0.30;0.30;;;;;;;;;;5028436;28;20017;-70
2023/12/24 13:36:15;;;;;;;0.50;0.50;;;;;;;;;;5029853;28;20080;-70
2023/12/24 13:38:40;;;;;;;3.07;0.70;;;;;;;;;;5026385;28;20645;-70
2023/12/24 13:41:06;;;;;;;0.40;0.40;;;;;;;;;;5027383;28;20350;-70
2023/12/24 13:43:31;;;;;;;0.63;0.43;;;;;;;;;;5030242;28;20318;-68
2023/12/24 13:45:57;;;;;;;0.30;0.30;;;;;;;;;;5031525;28;20021;-74
2023/12/24 13:48:22;;;;;;;0.40;0.20;;;;;;;;;;5026937;28;20465;-71
2023/12/24 13:50:48;;;;;;;0.33;0.33;;;;;;;;;;5028646;28;20079;-69
2023/12/24 13:53:13;;;;;;;0.20;0.20;;;;;;;;;;5028925;28;20026;-70
2023/12/24 13:55:38;;;;;;;0.10;0.10;;;;;;;;;;5034393;28;20251;-70
2023/12/24 13:58:04;;;;;;;0.15;0.15;;;;;;;;;;5029376;28;20083;-70
2023/12/24 14:00:29;;;;;;;0.10;0.10;;;;;;;;;;5021916;28;20040;-70
2023/12/24 14:02:55;;;;;;;0.28;0.28;;;;;;;;;;5032160;28;20489;-70
2023/12/24 14:05:22;;;;;;;0.20;0.20;;;;;;;;;;5030389;28;20022;-70
2023/12/24 14:07:47;;;;;;;0.28;0.28;;;;;;;;;;5031645;28;20014;-71
2023/12/24 14:10:12;;;;;;;0.30;0.27;;;;;;;;;;5032295;28;20075;-70
2023/12/24 14:12:41;;;;;;;0.30;0.30;;;;;;;;;;5028700;28;20338;-70
2023/12/24 14:15:07;;;;;;;0.47;0.40;;;;;;;;;;5032574;28;20405;-71
2023/12/24 14:17:33;;;;;;;0.35;0.35;;;;;;;;;;5024987;28;20014;-70
2023/12/24 14:19:58;;;;;;;0.50;0.40;;;;;;;;;;5014496;28;20026;-70
2023/12/24 14:22:24;;;;;;;0.80;0.40;;;;;;;;;;5013484;28;20013;-70
2023/12/24 14:24:50;;;;;;;0.22;0.22;;;;;;;;;;5014128;28;20026;-70
2023/12/24 14:27:16;;;;;;;0.35;0.35;;;;;;;;;;5013971;28;20112;-71
2023/12/24 14:29:41;;;;;;;0.60;0.45;;;;;;;;;;5013523;28;20109;-70
2023/12/24 14:32:06;;;;;;;0.30;0.20;;;;;;;;;;5013605;28;20101;-70
2023/12/24 14:34:32;;;;;;;0.40;0.40;;;;;;;;;;5012270;28;20021;-70